Kansai — JD3272 — position and weather

sailwx.info

Track history (hours):
 
Tides and Currents Weather Stations Pressure Air Temp Water Temp Dewpoint Dewpoint Depression Visibility Wind Speed Wind Dir Waves Ship Positions

Kansai

Last reported at 2017-Aug-21 13:41 UTC. Time now 2017-Aug-21 14:10 UTC.
Position N 34°36' E 134°55'.

Length 73 m; draft 4.2 m.

Type: Cargo ship. MMSI: 431003134.

Date/timePositionNaut miles runAvg speedWind from/ knotsBaromVisibWave heightAir tempDewpointWater temp
2017-Aug-21 13:41N 34°36' E 134°55'1 0.0
2017-Aug-20 02:10N 34°37' E 134°54'1 9.2
2017-Aug-20 02:00N 34°38' E 134°56'6 9.4
2017-Aug-20 01:23N 34°36' E 135°03'3 9.1
2017-Aug-20 01:00N 34°33' E 135°05'  
2017-Aug-16 04:31N 33°58' E 135°01'110.4
2017-Aug-16 04:26N 33°59' E 135°01'510.6
2017-Aug-16 04:00N 34°04' E 134°60'610.9
2017-Aug-16 03:27N 34°10' E 134°58'1710.8
2017-Aug-16 01:53N 34°26' E 135°01'410.6
2017-Aug-16 01:28N 34°31' E 135°02'510.0
2017-Aug-16 01:00N 34°35' E 135°03'711.0
2017-Aug-16 00:23N 34°37' E 134°55'512.1
2017-Aug-15 23:56N 34°40' E 134°50'  
Track history (hours):
 
Tides and Currents Weather Stations Pressure Air Temp Water Temp Dewpoint Dewpoint Depression Visibility Wind Speed Wind Dir Waves Ship Positions

Kansai

Last reported at 2017-Aug-21 13:41 UTC. Time now 2017-Aug-21 14:10 UTC.
Position N 34°36' E 134°55'.

Length 73 m; draft 4.2 m.

Type: Cargo ship. MMSI: 431003134.

Date/timePositionNaut miles runAvg speedWind from/ knotsBaromVisibWave heightAir tempDewpointWater temp
2017-Aug-21 13:41N 34°36' E 134°55'1 0.0
2017-Aug-20 02:10N 34°37' E 134°54'1 9.2
2017-Aug-20 02:00N 34°38' E 134°56'6 9.4
2017-Aug-20 01:23N 34°36' E 135°03'3 9.1
2017-Aug-20 01:00N 34°33' E 135°05'  
2017-Aug-16 04:31N 33°58' E 135°01'110.4
2017-Aug-16 04:26N 33°59' E 135°01'510.6
2017-Aug-16 04:00N 34°04' E 134°60'610.9
2017-Aug-16 03:27N 34°10' E 134°58'1710.8
2017-Aug-16 01:53N 34°26' E 135°01'410.6
2017-Aug-16 01:28N 34°31' E 135°02'510.0
2017-Aug-16 01:00N 34°35' E 135°03'711.0
2017-Aug-16 00:23N 34°37' E 134°55'512.1
2017-Aug-15 23:56N 34°40' E 134°50'  

Dump ship's entire track history